KAPF/APF METAR and TAF weather

Enter ICAO airport designator
Station Type Date Time Source
KAPF METAR 2020/05/29 19:28 UTC NOAA

KAPF 291928Z VRB05G16KT 3/4SM +TSRA SCT026 BKN034 BKN060 27/24 A3000 RMK AO2 LTG DSNT N-SE RAE1859B17 TSB19 P0024 T02720244 $


Station Type Date Time Source
KAPF Decoded METAR 2020/05/29 19:28 UTC NOAA

NAPLES MUNICIPAL AIRPORT, FL, United States (KAPF) 26-09N 081-46W
May 29, 2020 - 03:28 PM EDT / 2020.05.29 1928 UTC
Wind: Variable at 6 MPH (5 KT) gusting to 18 MPH (16 KT):0
Visibility: 3/4 mile(s):0
Sky conditions: mostly cloudy
Weather: heavy rain with thunder; Lightning observed
Precipitation last hour: 0.24 inches
Temperature: 81.0 F (27.2 C)
Dew Point: 75.9 F (24.4 C)
Relative Humidity: 84%
Pressure (altimeter): 30 in. Hg (1015 hPa)
ob: KAPF 291928Z VRB05G16KT 3/4SM +TSRA SCT026 BKN034 BKN060 27/24 A3000 RMK AO2 LTG DSNT N-SE RAE1859B17 TSB19 P0024 T02720244
cycle: 19

Station Type Date Time Source
KAPF TAF 2020/05/29 19:10 UTC NOAA

TAF
AMD KAPF 291908Z 2919/3018 20008KT P6SM VCTS SCT030CB BKN050
TEMPO 2919/2921 VRB20G30KT 1SM +TSRA SCT015 BKN025CB OVC040
FM292100 23008KT P6SM VCTS SCT025CB BKN050
FM300000 VRB06KT P6SM FEW030 SCT050 BKN250

Example: see airport list